createdAt,value
2022-10-04T00:02:21.587Z,97336.94
2022-10-04T00:05:24.284Z,97322.84
2022-10-04T00:08:51.743Z,97326.63
2022-10-04T00:11:50.076Z,97315.19
2022-10-04T00:14:47.781Z,97321.13
2022-10-04T00:17:44.881Z,97310.28
2022-10-04T00:20:50.581Z,97312.25
2022-10-04T00:23:48.171Z,97317.09
2022-10-04T00:26:44.871Z,97311.19
2022-10-04T00:29:42.559Z,97316.16
2022-10-04T00:32:39.504Z,97315.75
2022-10-04T00:35:36.204Z,97321.72
2022-10-04T00:38:33.107Z,97323.50
2022-10-04T00:41:51.762Z,97311.03
2022-10-04T00:44:59.559Z,97308.19
2022-10-04T00:48:11.530Z,97303.63
2022-10-04T00:51:30.055Z,97299.97
2022-10-04T00:54:43.401Z,97309.06
2022-10-04T00:57:48.441Z,97317.97
2022-10-04T01:00:48.368Z,97316.69
2022-10-04T01:03:46.225Z,97332.09
2022-10-04T01:06:44.397Z,97333.00
2022-10-04T01:09:54.961Z,97328.13
2022-10-04T01:13:13.430Z,97316.97
2022-10-04T01:16:15.549Z,97314.31
2022-10-04T01:19:29.954Z,97308.09
2022-10-04T01:22:42.635Z,97297.50
2022-10-04T01:25:50.821Z,97304.31
2022-10-04T01:28:47.712Z,97307.00
2022-10-04T01:31:50.813Z,97305.44
2022-10-04T01:34:47.750Z,97308.06
2022-10-04T01:37:44.648Z,97299.63
2022-10-04T01:40:57.277Z,97290.72
2022-10-04T01:44:01.366Z,97289.66
2022-10-04T01:47:04.279Z,97288.88
2022-10-04T01:50:20.147Z,97265.63
2022-10-04T01:53:31.334Z,97266.69
2022-10-04T01:56:39.206Z,97272.88
2022-10-04T01:59:54.729Z,97272.16
2022-10-04T02:03:00.494Z,97271.88
2022-10-04T02:06:02.126Z,97257.03
2022-10-04T02:08:59.271Z,97274.53
2022-10-04T02:11:58.253Z,97279.34
2022-10-04T02:14:57.104Z,97274.75
2022-10-04T02:17:55.787Z,97284.66
2022-10-04T02:20:54.258Z,97271.44
2022-10-04T02:23:53.342Z,97275.38
2022-10-04T02:26:54.179Z,97267.91
2022-10-04T02:29:51.014Z,97265.81
2022-10-04T02:32:57.698Z,97264.19
2022-10-04T02:35:54.566Z,97257.03
2022-10-04T02:39:18.179Z,97261.47
2022-10-04T02:42:44.244Z,97266.72
2022-10-04T02:45:52.209Z,97267.22
2022-10-04T02:48:58.592Z,97281.84
2022-10-04T02:52:04.057Z,97262.13
2022-10-04T02:55:32.857Z,97258.03
2022-10-04T02:58:32.129Z,97261.63
2022-10-04T03:02:01.029Z,97250.38
2022-10-04T03:05:10.554Z,97249.59
2022-10-04T03:08:08.145Z,97249.59
2022-10-04T03:11:05.878Z,97234.63
2022-10-04T03:14:09.053Z,97233.88
2022-10-04T03:17:07.312Z,97214.44
2022-10-04T03:20:06.012Z,97225.34
2022-10-04T03:23:04.283Z,97227.75
2022-10-04T03:26:19.147Z,97216.50
2022-10-04T03:29:18.150Z,97216.78
2022-10-04T03:32:18.904Z,97211.47
2022-10-04T03:35:37.397Z,97219.44
2022-10-04T03:38:36.212Z,97235.25
2022-10-04T03:41:34.445Z,97217.38
2022-10-04T03:44:32.240Z,97224.47
2022-10-04T03:47:37.668Z,97220.81
2022-10-04T03:50:47.019Z,97222.78
2022-10-04T03:53:47.653Z,97200.09
2022-10-04T03:56:45.682Z,97194.94
2022-10-04T03:59:43.248Z,97202.91
2022-10-04T04:02:50.836Z,97205.16
2022-10-04T04:05:54.608Z,97207.06
2022-10-04T04:08:55.309Z,97219.50
2022-10-04T04:11:56.323Z,97225.22
2022-10-04T04:14:54.255Z,97220.63
2022-10-04T04:17:56.120Z,97219.06
2022-10-04T04:20:59.072Z,97210.34
2022-10-04T04:24:02.751Z,97213.13
2022-10-04T04:27:05.228Z,97205.16
2022-10-04T04:30:06.279Z,97194.84
2022-10-04T04:33:12.461Z,97201.13
2022-10-04T04:36:14.521Z,97207.81
2022-10-04T04:39:43.781Z,97201.00
2022-10-04T04:42:40.846Z,97201.41
2022-10-04T04:45:38.560Z,97202.47
2022-10-04T04:48:36.513Z,97209.94
2022-10-04T04:51:33.725Z,97210.19
2022-10-04T04:54:30.775Z,97222.16
2022-10-04T04:57:27.860Z,97223.22
2022-10-04T05:00:32.830Z,97220.38
2022-10-04T05:03:34.090Z,97222.84
2022-10-04T05:06:33.185Z,97222.28
2022-10-04T05:09:41.407Z,97217.84
2022-10-04T05:12:38.299Z,97203.88
2022-10-04T05:15:40.072Z,97205.13
2022-10-04T05:18:37.230Z,97216.22
2022-10-04T05:21:40.778Z,97218.56
2022-10-04T05:24:46.099Z,97210.66
2022-10-04T05:27:45.405Z,97198.22
2022-10-04T05:31:17.235Z,97173.00
2022-10-04T05:34:31.775Z,97174.09
2022-10-04T05:37:55.236Z,97174.91
2022-10-04T05:41:05.021Z,97166.66
2022-10-04T05:44:02.499Z,97169.09
2022-10-04T05:47:01.455Z,97183.41
2022-10-04T05:50:00.017Z,97191.44
2022-10-04T05:53:35.657Z,97195.31
2022-10-04T05:56:48.846Z,97216.22
2022-10-04T06:00:14.666Z,97223.66
2022-10-04T06:03:52.362Z,97224.81
2022-10-04T06:07:14.947Z,97218.66
2022-10-04T06:10:17.387Z,97219.22
2022-10-04T06:14:05.321Z,97222.25
2022-10-04T06:17:43.201Z,97206.91
2022-10-04T06:20:58.557Z,97199.44
2022-10-04T06:24:11.286Z,97189.88
2022-10-04T06:27:27.717Z,97192.03
2022-10-04T06:30:25.194Z,97205.59
2022-10-04T06:33:33.648Z,97228.97
2022-10-04T06:37:01.181Z,97243.84
2022-10-04T06:40:29.240Z,97241.13
2022-10-04T06:43:47.162Z,97243.06
2022-10-04T06:47:13.365Z,97234.84
2022-10-04T06:50:48.203Z,97228.47
2022-10-04T06:54:27.494Z,97227.22
2022-10-04T06:57:38.962Z,97228.84
2022-10-04T07:00:54.349Z,97224.31
2022-10-04T07:04:20.254Z,97212.34
2022-10-04T07:07:35.449Z,97213.97
2022-10-04T07:10:56.613Z,97231.28
2022-10-04T07:14:13.055Z,97219.53
2022-10-04T07:17:22.330Z,97237.13
2022-10-04T07:20:33.936Z,97238.44
2022-10-04T07:23:44.059Z,97235.50
2022-10-04T07:26:50.567Z,97231.50
2022-10-04T07:29:55.818Z,97241.38
2022-10-04T07:32:57.787Z,97237.63
2022-10-04T07:36:12.524Z,97232.56
2022-10-04T07:39:59.452Z,97226.13
2022-10-04T07:43:19.702Z,97237.59
2022-10-04T07:46:59.737Z,97237.28
2022-10-04T07:49:58.244Z,97239.16
2022-10-04T07:53:15.290Z,97247.72
2022-10-04T07:56:23.199Z,97253.81
2022-10-04T07:59:34.862Z,97251.72
2022-10-04T08:02:58.997Z,97252.16
2022-10-04T08:06:12.052Z,97253.56
2022-10-04T08:10:14.397Z,97254.91
2022-10-04T08:13:50.228Z,97251.13
2022-10-04T08:17:15.403Z,97256.09
2022-10-04T08:20:42.412Z,97254.72
2022-10-04T08:24:20.054Z,97260.34
2022-10-04T08:28:08.673Z,97261.56
2022-10-04T08:31:44.582Z,97272.34
2022-10-04T08:35:34.263Z,97265.38
2022-10-04T08:38:49.131Z,97264.53
2022-10-04T08:42:15.300Z,97258.25
2022-10-04T08:45:38.115Z,97250.00
2022-10-04T08:49:01.773Z,97249.44
2022-10-04T08:52:45.934Z,97248.97
2022-10-04T08:56:32.259Z,97251.69
2022-10-04T08:59:49.767Z,97252.22
2022-10-04T09:03:31.142Z,97244.09
2022-10-04T09:06:38.206Z,97252.34
2022-10-04T09:10:24.910Z,97245.22
2022-10-04T09:13:55.397Z,97242.44
2022-10-04T09:17:39.637Z,97244.97
2022-10-04T09:21:10.861Z,97236.38
2022-10-04T09:25:09.059Z,97239.88
2022-10-04T09:28:44.677Z,97239.22
2022-10-04T09:32:19.834Z,97240.22
2022-10-04T09:35:36.368Z,97235.19
2022-10-04T09:39:30.101Z,97240.47
2022-10-04T09:43:29.546Z,97238.22
2022-10-04T09:47:05.006Z,97242.72
2022-10-04T09:50:40.059Z,97245.59
2022-10-04T09:54:11.676Z,97236.22
2022-10-04T09:57:53.582Z,97225.97
2022-10-04T10:01:15.184Z,97225.19
2022-10-04T10:05:00.190Z,97226.97
2022-10-04T10:08:28.509Z,97233.31
2022-10-04T10:12:12.428Z,97239.00
2022-10-04T10:15:24.853Z,97234.50
2022-10-04T10:19:26.140Z,97234.72
2022-10-04T10:23:20.600Z,97235.69
2022-10-04T10:26:58.147Z,97230.63
2022-10-04T10:30:04.126Z,97226.38
2022-10-04T10:33:00.888Z,97222.72
2022-10-04T10:36:19.762Z,97226.50
2022-10-04T10:40:00.036Z,97225.25
2022-10-04T10:43:09.469Z,97217.44
2022-10-04T10:47:03.203Z,97224.06
2022-10-04T10:50:25.152Z,97210.47
2022-10-04T10:54:16.003Z,97219.00
2022-10-04T10:58:28.621Z,97218.53
2022-10-04T11:02:17.952Z,97217.94
2022-10-04T11:05:58.155Z,97219.53
2022-10-04T11:09:34.953Z,97218.06
2022-10-04T11:13:11.180Z,97220.34
2022-10-04T11:16:51.902Z,97217.84
2022-10-04T11:20:32.005Z,97221.34
2022-10-04T11:24:02.328Z,97220.84
2022-10-04T11:27:37.887Z,97215.09
2022-10-04T11:31:01.385Z,97212.78
2022-10-04T11:34:55.553Z,97201.22
2022-10-04T11:38:23.115Z,97207.16
2022-10-04T11:42:07.684Z,97196.94
2022-10-04T11:45:40.393Z,97202.69
2022-10-04T11:49:03.474Z,97197.28
2022-10-04T11:52:36.939Z,97199.56
2022-10-04T11:56:38.378Z,97193.78
2022-10-04T12:00:22.597Z,97193.72
2022-10-04T12:03:36.343Z,97188.06
2022-10-04T12:07:26.684Z,97179.09
2022-10-04T12:10:40.019Z,97175.75
2022-10-04T12:14:26.361Z,97172.44
2022-10-04T12:17:38.483Z,97169.22
2022-10-04T12:21:12.581Z,97164.97
2022-10-04T12:24:52.407Z,97158.34
2022-10-04T12:28:21.548Z,97158.72
2022-10-04T12:31:32.168Z,97142.13
2022-10-04T12:35:00.106Z,97144.41
2022-10-04T12:38:45.389Z,97149.97
2022-10-04T12:42:06.462Z,97138.75
2022-10-04T12:45:26.949Z,97143.94
2022-10-04T12:48:48.941Z,97148.97
2022-10-04T12:52:11.596Z,97135.81
2022-10-04T12:55:48.550Z,97134.41
2022-10-04T12:59:12.562Z,97133.75
2022-10-04T13:02:30.755Z,97136.97
2022-10-04T13:05:46.832Z,97133.81
2022-10-04T13:09:14.196Z,97129.78
2022-10-04T13:12:29.836Z,97129.13
2022-10-04T13:19:23.232Z,97133.16
2022-10-04T13:23:15.027Z,97128.47
2022-10-04T13:26:44.259Z,97128.75
2022-10-04T13:30:02.299Z,97132.19
2022-10-04T13:33:50.199Z,97128.34
2022-10-04T13:37:21.870Z,97122.91
2022-10-04T13:40:39.675Z,97127.53
2022-10-04T13:44:31.530Z,97126.66
2022-10-04T13:48:21.970Z,97134.72
2022-10-04T13:51:46.844Z,97124.69
2022-10-04T13:55:25.799Z,97125.53
2022-10-04T13:59:00.794Z,97120.56
2022-10-04T14:02:23.686Z,97125.19
2022-10-04T14:05:44.026Z,97116.75
2022-10-04T14:09:35.614Z,97110.63
2022-10-04T14:13:11.075Z,97100.16
2022-10-04T14:16:49.915Z,97093.34
2022-10-04T14:20:50.243Z,97095.22
2022-10-04T14:24:34.375Z,97095.84
2022-10-04T14:27:39.391Z,97090.94
2022-10-04T14:31:13.720Z,97084.44
2022-10-04T14:34:45.279Z,97079.34
2022-10-04T14:38:24.506Z,97068.69
2022-10-04T14:42:05.851Z,97069.19
2022-10-04T14:45:49.277Z,97064.69
2022-10-04T14:49:37.638Z,97062.19
2022-10-04T14:53:10.139Z,97060.72
2022-10-04T14:56:42.164Z,97058.16
2022-10-04T15:00:10.588Z,97044.16
2022-10-04T15:03:46.715Z,97050.00
2022-10-04T15:07:00.484Z,97054.53
2022-10-04T15:10:19.040Z,97057.03
2022-10-04T15:13:25.398Z,97063.25
2022-10-04T15:16:44.978Z,97069.72
2022-10-04T15:20:05.052Z,97063.84
2022-10-04T15:23:01.717Z,97069.13
2022-10-04T15:26:19.498Z,97066.41
2022-10-04T15:29:59.792Z,97059.66
2022-10-04T15:33:20.604Z,97061.88
2022-10-04T15:36:39.513Z,97060.91
2022-10-04T15:40:16.488Z,97063.94
2022-10-04T15:43:30.047Z,97071.19
2022-10-04T15:47:09.849Z,97069.88
2022-10-04T15:50:30.496Z,97068.59
2022-10-04T15:53:52.426Z,97074.59
2022-10-04T15:56:56.420Z,97081.34
2022-10-04T16:00:15.176Z,97087.28
2022-10-04T16:03:42.640Z,97078.97
2022-10-04T16:06:46.976Z,97074.41
2022-10-04T16:09:58.929Z,97075.44
2022-10-04T16:13:19.545Z,97077.41
2022-10-04T16:16:26.180Z,97075.88
2022-10-04T16:20:20.001Z,97077.50
2022-10-04T16:23:31.382Z,97080.00
2022-10-04T16:26:33.761Z,97073.53
2022-10-04T16:30:25.670Z,97074.69
2022-10-04T16:33:42.418Z,97082.03
2022-10-04T16:37:18.244Z,97090.44
2022-10-04T16:40:56.980Z,97088.03
2022-10-04T16:43:56.103Z,97104.00
2022-10-04T16:46:55.679Z,97097.97
2022-10-04T16:49:57.212Z,97105.31
2022-10-04T16:53:21.503Z,97103.88
2022-10-04T16:56:24.740Z,97103.78
2022-10-04T16:59:41.967Z,97109.66
2022-10-04T17:03:03.825Z,97117.00
2022-10-04T17:06:14.747Z,97114.88
2022-10-04T17:09:30.059Z,97112.91
2022-10-04T17:12:51.152Z,97123.88
2022-10-04T17:16:06.028Z,97125.56
2022-10-04T17:19:31.807Z,97123.19
2022-10-04T17:22:56.964Z,97119.47
2022-10-04T17:26:29.949Z,97115.72
2022-10-04T17:30:11.842Z,97112.56
2022-10-04T17:33:44.254Z,97124.75
2022-10-04T17:36:56.271Z,97121.81
2022-10-04T17:40:11.737Z,97126.75
2022-10-04T17:43:41.935Z,97124.56
2022-10-04T17:47:14.579Z,97122.25
2022-10-04T17:51:08.241Z,97119.69
2022-10-04T17:54:40.896Z,97129.31
2022-10-04T17:58:24.093Z,97146.22
2022-10-04T18:01:45.813Z,97145.25
2022-10-04T18:04:53.123Z,97146.63
2022-10-04T18:08:44.490Z,97146.28
2022-10-04T18:12:10.191Z,97146.63
2022-10-04T18:15:32.024Z,97145.59
2022-10-04T18:18:41.811Z,97143.75
2022-10-04T18:21:49.420Z,97138.50
2022-10-04T18:25:15.566Z,97143.31
2022-10-04T18:28:20.723Z,97137.75
2022-10-04T18:31:37.299Z,97130.28
2022-10-04T18:34:36.382Z,97135.94
2022-10-04T18:37:39.031Z,97139.13
2022-10-04T18:40:42.964Z,97137.03
2022-10-04T18:44:05.062Z,97143.97
2022-10-04T18:47:14.347Z,97134.06
2022-10-04T18:50:44.730Z,97137.25
2022-10-04T18:53:44.282Z,97140.22
2022-10-04T18:57:04.715Z,97143.72
2022-10-04T19:00:30.560Z,97143.25
2022-10-04T19:03:37.051Z,97140.59
2022-10-04T19:06:38.208Z,97147.72
2022-10-04T19:10:01.105Z,97144.00
2022-10-04T19:13:08.177Z,97145.13
2022-10-04T19:16:31.203Z,97155.25
2022-10-04T19:19:49.427Z,97146.75
2022-10-04T19:22:52.059Z,97157.72
2022-10-04T19:26:31.268Z,97159.28
2022-10-04T19:29:41.150Z,97167.81
2022-10-04T19:32:57.451Z,97175.03
2022-10-04T19:36:52.697Z,97169.72
2022-10-04T19:40:24.674Z,97176.38
2022-10-04T19:43:31.989Z,97183.00
2022-10-04T19:47:02.563Z,97182.75
2022-10-04T19:50:32.610Z,97193.94
2022-10-04T19:53:44.293Z,97185.69
2022-10-04T19:56:49.526Z,97191.84
2022-10-04T19:59:48.394Z,97186.78
2022-10-04T20:02:48.740Z,97191.28
2022-10-04T20:05:53.263Z,97185.97
2022-10-04T20:09:24.475Z,97187.03
2022-10-04T20:12:41.359Z,97190.75
2022-10-04T20:15:38.466Z,97195.81
2022-10-04T20:18:57.703Z,97190.22
2022-10-04T20:21:55.804Z,97195.00
2022-10-04T20:24:52.781Z,97193.66
2022-10-04T20:27:49.469Z,97199.53
2022-10-04T20:30:52.391Z,97198.19
2022-10-04T20:33:50.536Z,97193.41
2022-10-04T20:36:51.932Z,97200.59
2022-10-04T20:39:51.209Z,97191.81
2022-10-04T20:43:15.035Z,97188.88
2022-10-04T20:46:23.675Z,97191.00
2022-10-04T20:49:20.548Z,97190.44
2022-10-04T20:52:17.664Z,97200.28
2022-10-04T20:55:28.164Z,97193.88
2022-10-04T20:58:35.381Z,97204.75
2022-10-04T21:01:35.562Z,97194.91
2022-10-04T21:04:33.520Z,97194.16
2022-10-04T21:07:30.954Z,97188.59
2022-10-04T21:10:28.593Z,97177.41
2022-10-04T21:13:49.184Z,97184.31
2022-10-04T21:16:48.784Z,97187.81
2022-10-04T21:19:46.240Z,97198.69
2022-10-04T21:22:43.130Z,97214.06
2022-10-04T21:25:40.015Z,97216.44
2022-10-04T21:28:36.861Z,97223.91
2022-10-04T21:31:34.064Z,97210.09
2022-10-04T21:34:51.827Z,97220.94
2022-10-04T21:37:47.788Z,97210.72
2022-10-04T21:40:44.618Z,97221.88
2022-10-04T21:43:41.432Z,97213.91
2022-10-04T21:46:38.538Z,97215.28
2022-10-04T21:49:35.460Z,97209.34
2022-10-04T21:52:32.272Z,97200.34
2022-10-04T21:55:29.082Z,97203.22
2022-10-04T21:58:25.943Z,97191.00
2022-10-04T22:01:23.509Z,97185.41
2022-10-04T22:04:20.386Z,97175.78
2022-10-04T22:07:17.212Z,97169.00
2022-10-04T22:10:14.131Z,97164.31
2022-10-04T22:13:10.950Z,97160.63
2022-10-04T22:16:08.490Z,97158.03
2022-10-04T22:19:05.371Z,97142.28
2022-10-04T22:22:02.224Z,97155.28
2022-10-04T22:24:59.914Z,97147.47
2022-10-04T22:27:56.777Z,97149.34
2022-10-04T22:30:55.814Z,97149.91
2022-10-04T22:33:53.155Z,97148.63
2022-10-04T22:36:52.963Z,97144.81
2022-10-04T22:39:53.494Z,97136.06
2022-10-04T22:42:56.105Z,97127.31
2022-10-04T22:45:54.683Z,97126.34
2022-10-04T22:48:51.533Z,97118.50
2022-10-04T22:51:50.569Z,97125.22
2022-10-04T22:54:50.766Z,97125.38
2022-10-04T22:57:47.724Z,97115.88
2022-10-04T23:00:45.445Z,97111.38
2022-10-04T23:03:47.703Z,97110.88
2022-10-04T23:06:44.853Z,97121.44
2022-10-04T23:09:41.839Z,97120.09
2022-10-04T23:12:40.698Z,97121.69
2022-10-04T23:15:37.521Z,97116.69
2022-10-04T23:18:34.346Z,97118.53
2022-10-04T23:21:35.132Z,97113.19
2022-10-04T23:24:31.933Z,97102.38
2022-10-04T23:27:29.260Z,97117.72
2022-10-04T23:30:26.388Z,97121.13
2022-10-04T23:33:23.962Z,97109.47
2022-10-04T23:36:21.580Z,97097.72
2022-10-04T23:39:33.806Z,97098.31
2022-10-04T23:42:33.437Z,97100.16
2022-10-04T23:45:30.609Z,97097.94
2022-10-04T23:48:29.320Z,97098.81
2022-10-04T23:51:26.188Z,97093.41
2022-10-04T23:54:23.010Z,97080.69
2022-10-04T23:57:27.923Z,97086.03
